createdAt,value
2024-05-09T00:01:00.327Z,1026.25
2024-05-09T00:01:42.043Z,1026.29
2024-05-09T00:02:41.184Z,1026.26
2024-05-09T00:03:41.985Z,1026.26
2024-05-09T00:04:41.958Z,1026.27
2024-05-09T00:05:42.440Z,1026.30
2024-05-09T00:06:41.209Z,1026.28
2024-05-09T00:07:41.980Z,1026.22
2024-05-09T00:08:42.232Z,1026.24
2024-05-09T00:09:41.932Z,1026.26
2024-05-09T00:11:01.070Z,1026.27
2024-05-09T00:11:40.204Z,1026.26
2024-05-09T00:12:39.797Z,1026.23
2024-05-09T00:13:40.008Z,1026.26
2024-05-09T00:14:39.808Z,1026.23
2024-05-09T00:16:56.027Z,1026.27
2024-05-09T00:17:55.942Z,1026.25
2024-05-09T00:18:56.065Z,1026.22
2024-05-09T00:19:55.692Z,1026.27
2024-05-09T00:20:55.911Z,1026.22
2024-05-09T00:21:57.619Z,1026.26
2024-05-09T00:22:55.912Z,1026.24
2024-05-09T00:23:55.615Z,1026.24
2024-05-09T00:24:55.847Z,1026.21
2024-05-09T00:26:15.589Z,1026.23
2024-05-09T00:26:55.814Z,1026.20
2024-05-09T00:27:55.512Z,1026.21
2024-05-09T00:28:55.763Z,1026.19
2024-05-09T00:29:55.933Z,1026.19
2024-05-09T00:30:55.646Z,1026.19
2024-05-09T00:31:55.983Z,1026.19
2024-05-09T00:32:55.746Z,1026.22
2024-05-09T00:33:56.047Z,1026.23
2024-05-09T00:34:55.536Z,1026.24
2024-05-09T00:36:15.732Z,1026.22
2024-05-09T00:36:55.459Z,1026.24
2024-05-09T00:37:55.765Z,1026.20
2024-05-09T00:38:55.437Z,1026.23
2024-05-09T00:39:55.654Z,1026.22
2024-05-09T00:40:55.420Z,1026.20
2024-05-09T00:41:55.594Z,1026.21
2024-05-09T00:42:55.319Z,1026.19
2024-05-09T00:43:55.585Z,1026.20
2024-05-09T00:44:55.258Z,1026.19
2024-05-09T00:46:17.067Z,1026.23
2024-05-09T00:46:55.395Z,1026.24
2024-05-09T00:47:55.679Z,1026.24
2024-05-09T00:48:55.392Z,1026.24
2024-05-09T00:49:55.488Z,1026.26
2024-05-09T00:50:55.681Z,1026.22
2024-05-09T00:51:55.350Z,1026.20
2024-05-09T00:52:55.666Z,1026.22
2024-05-09T00:53:55.303Z,1026.19
2024-05-09T00:54:55.500Z,1026.20
2024-05-09T00:56:17.278Z,1026.14
2024-05-09T00:56:55.524Z,1026.15
2024-05-09T00:57:55.249Z,1026.14
2024-05-09T00:58:55.509Z,1026.16
2024-05-09T00:59:55.170Z,1026.15
2024-05-09T01:00:55.414Z,1026.16
2024-05-09T01:01:55.309Z,1026.11
2024-05-09T01:02:55.509Z,1026.13
2024-05-09T01:03:55.692Z,1026.10
2024-05-09T01:04:55.485Z,1026.12
2024-05-09T01:06:16.479Z,1026.09
2024-05-09T01:07:00.522Z,1026.07
2024-05-09T01:07:55.323Z,1026.07
2024-05-09T01:08:55.463Z,1026.06
2024-05-09T01:09:55.227Z,1026.00
2024-05-09T01:10:55.527Z,1026.01
2024-05-09T01:11:55.369Z,1026.03
2024-05-09T01:12:55.347Z,1025.98
2024-05-09T01:13:55.088Z,1025.99
2024-05-09T01:14:55.310Z,1026.02
2024-05-09T01:16:16.592Z,1026.00
2024-05-09T01:16:55.411Z,1026.02
2024-05-09T01:17:55.552Z,1026.02
2024-05-09T01:18:55.549Z,1026.02
2024-05-09T01:19:55.046Z,1026.00
2024-05-09T01:21:02.554Z,1026.01
2024-05-09T01:21:55.217Z,1025.99
2024-05-09T01:22:55.004Z,1026.03
2024-05-09T01:23:55.193Z,1025.97
2024-05-09T01:24:54.888Z,1025.97
2024-05-09T01:26:17.169Z,1025.95
2024-05-09T01:26:54.879Z,1025.93
2024-05-09T01:27:55.083Z,1025.96
2024-05-09T01:28:54.942Z,1025.96
2024-05-09T01:29:55.027Z,1026.00
2024-05-09T01:30:55.246Z,1025.97
2024-05-09T01:31:55.097Z,1025.95
2024-05-09T01:32:55.366Z,1025.91
2024-05-09T01:33:54.956Z,1025.92
2024-05-09T01:34:55.194Z,1025.89
2024-05-09T01:36:15.871Z,1025.91
2024-05-09T01:36:55.387Z,1025.88
2024-05-09T01:37:54.890Z,1025.85
2024-05-09T01:38:55.066Z,1025.87
2024-05-09T01:39:54.772Z,1025.84
2024-05-09T01:40:55.076Z,1025.84
2024-05-09T01:41:54.823Z,1025.86
2024-05-09T01:42:55.279Z,1025.85
2024-05-09T01:43:54.718Z,1025.85
2024-05-09T01:44:54.886Z,1025.84
2024-05-09T01:46:17.139Z,1025.85
2024-05-09T01:46:54.911Z,1025.84
2024-05-09T01:48:02.234Z,1025.85
2024-05-09T01:48:54.792Z,1025.85
2024-05-09T01:49:54.900Z,1025.84
2024-05-09T01:50:54.635Z,1025.86
2024-05-09T01:51:54.795Z,1025.84
2024-05-09T01:52:55.089Z,1025.88
2024-05-09T01:53:54.760Z,1025.83
2024-05-09T01:54:54.952Z,1025.81
2024-05-09T01:56:16.769Z,1025.82
2024-05-09T01:56:54.982Z,1025.84
2024-05-09T01:57:54.680Z,1025.86
2024-05-09T01:58:55.014Z,1025.77
2024-05-09T01:59:54.630Z,1025.82
2024-05-09T02:00:54.907Z,1025.75
2024-05-09T02:01:57.016Z,1025.83
2024-05-09T02:03:00.217Z,1025.77
2024-05-09T02:03:54.855Z,1025.76
2024-05-09T02:04:54.598Z,1025.83
2024-05-09T02:06:16.749Z,1025.81
2024-05-09T02:06:54.486Z,1025.80
2024-05-09T02:07:54.774Z,1025.79
2024-05-09T02:08:54.477Z,1025.79
2024-05-09T02:09:54.725Z,1025.77
2024-05-09T02:10:54.503Z,1025.80
2024-05-09T02:11:54.786Z,1025.83
2024-05-09T02:12:54.366Z,1025.79
2024-05-09T02:13:54.584Z,1025.85
2024-05-09T02:14:54.802Z,1025.80
2024-05-09T02:16:15.521Z,1025.83
2024-05-09T02:16:54.851Z,1025.81
2024-05-09T02:17:54.978Z,1025.85
2024-05-09T02:18:54.511Z,1025.84
2024-05-09T02:19:54.714Z,1025.81
2024-05-09T02:20:54.384Z,1025.80
2024-05-09T02:21:54.590Z,1025.77
2024-05-09T02:22:54.396Z,1025.81
2024-05-09T02:23:54.546Z,1025.77
2024-05-09T02:24:54.268Z,1025.74
2024-05-09T02:26:16.691Z,1025.75
2024-05-09T02:26:54.384Z,1025.74
2024-05-09T02:27:57.053Z,1025.77
2024-05-09T02:28:54.352Z,1025.82
2024-05-09T02:29:54.541Z,1025.83
2024-05-09T02:30:54.242Z,1025.82
2024-05-09T02:31:54.592Z,1025.74
2024-05-09T02:32:54.425Z,1025.80
2024-05-09T02:33:54.680Z,1025.82
2024-05-09T02:34:54.277Z,1025.82
2024-05-09T02:36:16.427Z,1025.78
2024-05-09T02:36:54.188Z,1025.81
2024-05-09T02:37:54.470Z,1025.80
2024-05-09T02:38:54.138Z,1025.78
2024-05-09T02:39:54.357Z,1025.83
2024-05-09T02:40:54.109Z,1025.83
2024-05-09T02:41:54.307Z,1025.83
2024-05-09T02:42:54.010Z,1025.82
2024-05-09T02:43:54.247Z,1025.87
2024-05-09T02:44:54.452Z,1025.86
2024-05-09T02:46:15.181Z,1025.87
2024-05-09T02:46:54.489Z,1025.87
2024-05-09T02:47:54.506Z,1025.84
2024-05-09T02:48:54.486Z,1025.84
2024-05-09T02:49:54.140Z,1025.84
2024-05-09T02:50:54.355Z,1025.86
2024-05-09T02:51:54.069Z,1025.82
2024-05-09T02:52:54.299Z,1025.87
2024-05-09T02:53:54.020Z,1025.86
2024-05-09T02:54:54.260Z,1025.82
2024-05-09T02:56:16.016Z,1025.83
2024-05-09T02:56:54.241Z,1025.83
2024-05-09T02:57:53.967Z,1025.85
2024-05-09T02:58:54.219Z,1025.85
2024-05-09T02:59:53.916Z,1025.83
2024-05-09T03:01:02.404Z,1025.84
2024-05-09T03:01:54.178Z,1025.81
2024-05-09T03:02:53.933Z,1025.81
2024-05-09T03:03:54.156Z,1025.78
2024-05-09T03:04:54.458Z,1025.75
2024-05-09T03:06:15.975Z,1025.73
2024-05-09T03:06:53.756Z,1025.74
2024-05-09T03:07:53.990Z,1025.73
2024-05-09T03:08:54.189Z,1025.77
2024-05-09T03:09:53.920Z,1025.74
2024-05-09T03:10:54.182Z,1025.79
2024-05-09T03:11:53.963Z,1025.74
2024-05-09T03:12:54.087Z,1025.79
2024-05-09T03:13:53.895Z,1025.79
2024-05-09T03:14:54.014Z,1025.76
2024-05-09T03:16:15.246Z,1025.78
2024-05-09T03:16:54.054Z,1025.77
2024-05-09T03:17:53.898Z,1025.79
2024-05-09T03:18:54.111Z,1025.77
2024-05-09T03:19:53.714Z,1025.84
2024-05-09T03:20:54.006Z,1025.78
2024-05-09T03:21:53.706Z,1025.81
2024-05-09T03:22:57.011Z,1025.79
2024-05-09T03:23:53.710Z,1025.79
2024-05-09T03:24:53.848Z,1025.76
2024-05-09T03:26:15.654Z,1025.77
2024-05-09T03:26:53.874Z,1025.75
2024-05-09T03:27:54.465Z,1025.73
2024-05-09T03:28:53.817Z,1025.76
2024-05-09T03:30:00.805Z,1025.70
2024-05-09T03:30:53.520Z,1025.76
2024-05-09T03:31:53.798Z,1025.77
2024-05-09T03:32:53.624Z,1025.77
2024-05-09T03:33:53.781Z,1025.79
2024-05-09T03:34:53.914Z,1025.82
2024-05-09T03:36:15.602Z,1025.82
2024-05-09T03:36:53.892Z,1025.81
2024-05-09T03:37:53.642Z,1025.83
2024-05-09T03:38:53.837Z,1025.83
2024-05-09T03:39:53.547Z,1025.84
2024-05-09T03:40:53.805Z,1025.80
2024-05-09T03:41:53.512Z,1025.79
2024-05-09T03:42:53.724Z,1025.72
2024-05-09T03:45:09.955Z,1025.75
2024-05-09T03:46:10.746Z,1025.69
2024-05-09T03:47:10.564Z,1025.72
2024-05-09T03:48:11.154Z,1025.78
2024-05-09T03:49:10.594Z,1025.72
2024-05-09T03:50:18.030Z,1025.75
2024-05-09T03:51:11.648Z,1025.76
2024-05-09T03:52:10.817Z,1025.77
2024-05-09T03:53:08.939Z,1025.81
2024-05-09T03:54:28.863Z,1025.82
2024-05-09T03:55:10.054Z,1025.76
2024-05-09T03:56:10.856Z,1025.83
2024-05-09T03:57:10.577Z,1025.77
2024-05-09T03:58:08.855Z,1025.76
2024-05-09T03:59:08.623Z,1025.72
2024-05-09T04:00:17.743Z,1025.78
2024-05-09T04:01:09.593Z,1025.82
2024-05-09T04:02:08.856Z,1025.83
2024-05-09T04:03:11.166Z,1025.80
2024-05-09T04:04:30.260Z,1025.83
2024-05-09T04:05:08.506Z,1025.82
2024-05-09T04:06:16.911Z,1025.81
2024-05-09T04:07:08.670Z,1025.81
2024-05-09T04:08:08.506Z,1025.83
2024-05-09T04:09:08.722Z,1025.86
2024-05-09T04:10:11.283Z,1025.83
2024-05-09T04:11:09.803Z,1025.82
2024-05-09T04:12:08.560Z,1025.87
2024-05-09T04:13:08.616Z,1025.85
2024-05-09T04:14:29.193Z,1025.83
2024-05-09T04:15:12.127Z,1025.83
2024-05-09T04:16:08.327Z,1025.86
2024-05-09T04:17:08.568Z,1025.82
2024-05-09T04:18:08.652Z,1025.79
2024-05-09T04:19:08.569Z,1025.81
2024-05-09T04:20:24.175Z,1025.85
2024-05-09T04:21:09.463Z,1025.79
2024-05-09T04:22:08.492Z,1025.82
2024-05-09T04:23:09.253Z,1025.82
2024-05-09T04:24:30.427Z,1025.76
2024-05-09T04:25:08.199Z,1025.74
2024-05-09T04:26:08.467Z,1025.73
2024-05-09T04:27:08.161Z,1025.68
2024-05-09T04:28:08.377Z,1025.74
2024-05-09T04:29:08.190Z,1025.75
2024-05-09T04:30:15.275Z,1025.75
2024-05-09T04:31:09.531Z,1025.75
2024-05-09T04:32:08.378Z,1025.79
2024-05-09T04:33:10.901Z,1025.76
2024-05-09T04:34:30.334Z,1025.71
2024-05-09T04:35:08.080Z,1025.73
2024-05-09T04:36:08.217Z,1025.73
2024-05-09T04:37:08.461Z,1025.72
2024-05-09T04:38:08.247Z,1025.72
2024-05-09T04:39:08.386Z,1025.76
2024-05-09T04:40:11.301Z,1025.78
2024-05-09T04:41:09.368Z,1025.77
2024-05-09T04:42:08.047Z,1025.78
2024-05-09T04:43:08.282Z,1025.82
2024-05-09T04:44:28.978Z,1025.82
2024-05-09T04:45:08.253Z,1025.80
2024-05-09T04:46:07.968Z,1025.79
2024-05-09T04:47:10.197Z,1025.75
2024-05-09T04:48:08.127Z,1025.80
2024-05-09T04:49:14.633Z,1025.79
2024-05-09T04:50:11.558Z,1025.79
2024-05-09T04:51:09.026Z,1025.75
2024-05-09T04:52:08.106Z,1025.77
2024-05-09T04:53:09.528Z,1025.73
2024-05-09T04:54:35.846Z,1025.78
2024-05-09T04:55:08.832Z,1025.73
2024-05-09T04:56:08.108Z,1025.71
2024-05-09T04:57:07.758Z,1025.75
2024-05-09T04:58:08.029Z,1025.73
2024-05-09T04:59:07.801Z,1025.72
2024-05-09T05:00:14.555Z,1025.71
2024-05-09T05:01:09.255Z,1025.69
2024-05-09T05:02:08.025Z,1025.71
2024-05-09T05:03:09.492Z,1025.74
2024-05-09T05:04:29.910Z,1025.75
2024-05-09T05:05:08.214Z,1025.73
2024-05-09T05:06:07.920Z,1025.76
2024-05-09T05:07:08.074Z,1025.78
2024-05-09T05:08:07.820Z,1025.77
2024-05-09T05:09:07.992Z,1025.80
2024-05-09T05:10:11.834Z,1025.83
2024-05-09T05:11:09.046Z,1025.82
2024-05-09T05:12:07.717Z,1025.83
2024-05-09T05:13:07.900Z,1025.82
2024-05-09T05:14:29.660Z,1025.83
2024-05-09T05:15:07.875Z,1025.80
2024-05-09T05:16:14.853Z,1025.80
2024-05-09T05:17:07.664Z,1025.78
2024-05-09T05:18:08.093Z,1025.78
2024-05-09T05:19:10.832Z,1025.78
2024-05-09T05:20:08.766Z,1025.79
2024-05-09T05:21:07.569Z,1025.79
2024-05-09T05:22:07.815Z,1025.81
2024-05-09T05:23:07.592Z,1025.83
2024-05-09T05:24:27.744Z,1025.87
2024-05-09T05:25:08.946Z,1025.88
2024-05-09T05:26:07.872Z,1025.91
2024-05-09T05:27:07.522Z,1025.90
2024-05-09T05:28:09.702Z,1025.87
2024-05-09T05:29:07.493Z,1025.89
2024-05-09T05:30:12.033Z,1025.86
2024-05-09T05:31:08.394Z,1025.85
2024-05-09T05:32:07.717Z,1025.86
2024-05-09T05:33:07.933Z,1025.85
2024-05-09T05:34:27.586Z,1025.83
2024-05-09T05:35:07.862Z,1025.89
2024-05-09T05:36:07.547Z,1025.82
2024-05-09T05:37:07.757Z,1025.83
2024-05-09T05:38:07.531Z,1025.80
2024-05-09T05:39:07.706Z,1025.82
2024-05-09T05:40:11.822Z,1025.81
2024-05-09T05:41:07.723Z,1025.81
2024-05-09T05:42:07.395Z,1025.82
2024-05-09T05:43:07.606Z,1025.84
2024-05-09T05:44:27.491Z,1025.81
2024-05-09T05:45:09.661Z,1025.83
2024-05-09T05:46:13.452Z,1025.82
2024-05-09T05:47:08.372Z,1025.84
2024-05-09T05:48:08.152Z,1025.91
2024-05-09T05:49:07.308Z,1025.86
2024-05-09T05:50:17.818Z,1025.91
2024-05-09T05:51:08.256Z,1025.89
2024-05-09T05:52:09.393Z,1025.93
2024-05-09T05:53:08.014Z,1025.92
2024-05-09T05:54:27.412Z,1025.93
2024-05-09T05:55:07.133Z,1025.94
2024-05-09T05:56:06.673Z,1025.94
2024-05-09T05:57:06.723Z,1025.91
2024-05-09T05:58:06.636Z,1025.90
2024-05-09T05:59:15.151Z,1025.91
2024-05-09T06:00:09.589Z,1025.92
2024-05-09T06:01:06.914Z,1025.93
2024-05-09T06:02:07.401Z,1025.88
2024-05-09T06:03:07.932Z,1025.93
2024-05-09T06:04:29.371Z,1025.90
2024-05-09T06:05:09.651Z,1025.90
2024-05-09T06:06:07.279Z,1025.96
2024-05-09T06:07:07.489Z,1025.96
2024-05-09T06:08:07.310Z,1025.99
2024-05-09T06:09:07.421Z,1025.98
2024-05-09T06:10:11.360Z,1025.98
2024-05-09T06:11:08.399Z,1026.01
2024-05-09T06:12:07.147Z,1026.02
2024-05-09T06:13:07.274Z,1026.01
2024-05-09T06:14:27.216Z,1025.96
2024-05-09T06:15:07.221Z,1026.01
2024-05-09T06:16:06.955Z,1025.99
2024-05-09T06:17:07.197Z,1026.02
2024-05-09T06:18:07.240Z,1025.98
2024-05-09T06:19:07.168Z,1026.02
2024-05-09T06:20:11.160Z,1026.00
2024-05-09T06:21:08.113Z,1026.01
2024-05-09T06:22:07.272Z,1025.93
2024-05-09T06:23:07.238Z,1025.99
2024-05-09T06:24:27.216Z,1025.95
2024-05-09T06:25:06.968Z,1025.96
2024-05-09T06:26:07.194Z,1026.01
2024-05-09T06:27:06.913Z,1025.99
2024-05-09T06:28:07.131Z,1025.99
2024-05-09T06:29:08.839Z,1025.96
2024-05-09T06:30:14.422Z,1025.92
2024-05-09T06:31:07.819Z,1025.88
2024-05-09T06:32:07.110Z,1025.91
2024-05-09T06:33:07.125Z,1025.84
2024-05-09T06:34:27.224Z,1025.88
2024-05-09T06:35:08.715Z,1025.85
2024-05-09T06:36:06.951Z,1025.87
2024-05-09T06:37:06.676Z,1025.88
2024-05-09T06:38:06.976Z,1025.90
2024-05-09T06:39:06.658Z,1025.85
2024-05-09T06:40:07.643Z,1025.88
2024-05-09T06:41:07.145Z,1025.87
2024-05-09T06:42:06.861Z,1025.90
2024-05-09T06:43:07.111Z,1025.91
2024-05-09T06:44:28.857Z,1025.94
2024-05-09T06:45:06.620Z,1025.91
2024-05-09T06:46:06.847Z,1025.95
2024-05-09T06:47:06.671Z,1025.86
2024-05-09T06:48:07.085Z,1025.92
2024-05-09T06:49:09.212Z,1025.88
2024-05-09T06:50:13.106Z,1025.88
2024-05-09T06:51:08.254Z,1025.94
2024-05-09T06:52:06.733Z,1025.92
2024-05-09T06:53:07.109Z,1025.87
2024-05-09T06:54:27.899Z,1025.90
2024-05-09T06:55:06.956Z,1025.92
2024-05-09T06:56:06.736Z,1025.91
2024-05-09T06:57:07.887Z,1025.88
2024-05-09T06:58:06.979Z,1025.88
2024-05-09T06:59:06.968Z,1025.89
2024-05-09T07:00:08.280Z,1025.91
2024-05-09T07:01:07.927Z,1025.90
2024-05-09T07:02:06.662Z,1025.93
2024-05-09T07:03:06.941Z,1025.94
2024-05-09T07:04:28.612Z,1025.92
2024-05-09T07:05:07.030Z,1025.96
2024-05-09T07:06:06.452Z,1025.96
2024-05-09T07:07:05.872Z,1025.87
2024-05-09T07:08:07.965Z,1025.85
2024-05-09T07:09:05.942Z,1025.89
2024-05-09T07:10:21.524Z,1025.87
2024-05-09T07:11:06.966Z,1025.88
2024-05-09T07:12:05.930Z,1025.89
2024-05-09T07:13:05.821Z,1025.89
2024-05-09T07:14:25.972Z,1025.88
2024-05-09T07:15:05.783Z,1025.88
2024-05-09T07:16:05.766Z,1025.92
2024-05-09T07:17:05.955Z,1025.89
2024-05-09T07:18:05.879Z,1025.93
2024-05-09T07:19:05.960Z,1025.94
2024-05-09T07:20:08.984Z,1025.95
2024-05-09T07:21:06.527Z,1025.91
2024-05-09T07:22:06.210Z,1025.94
2024-05-09T07:23:06.564Z,1025.95
2024-05-09T07:24:26.685Z,1025.93
2024-05-09T07:25:14.222Z,1025.96
2024-05-09T07:26:06.988Z,1025.89
2024-05-09T07:27:06.939Z,1025.93
2024-05-09T07:28:08.128Z,1025.95
2024-05-09T07:29:07.949Z,1025.95
2024-05-09T07:30:09.421Z,1025.91
2024-05-09T07:31:07.455Z,1025.91
2024-05-09T07:32:07.086Z,1025.95
2024-05-09T07:33:08.726Z,1025.93
2024-05-09T07:34:28.366Z,1025.94
2024-05-09T07:35:08.550Z,1025.96
2024-05-09T07:36:08.278Z,1025.96
2024-05-09T07:37:07.363Z,1025.95
2024-05-09T07:38:08.450Z,1025.94
2024-05-09T07:39:06.354Z,1025.92
2024-05-09T07:40:07.720Z,1025.96
2024-05-09T07:41:08.206Z,1025.95
2024-05-09T07:42:07.986Z,1025.92
2024-05-09T07:43:07.349Z,1025.93
2024-05-09T07:44:28.199Z,1025.93
2024-05-09T07:45:21.591Z,1025.90
2024-05-09T07:47:10.071Z,1025.94
2024-05-09T07:48:14.494Z,1025.91
2024-05-09T07:52:22.635Z,1025.91
2024-05-09T07:53:37.578Z,1025.92
2024-05-09T07:54:27.764Z,1025.85
2024-05-09T07:55:06.460Z,1025.82
2024-05-09T07:56:06.963Z,1025.80
2024-05-09T07:57:05.967Z,1025.78
2024-05-09T07:58:08.086Z,1025.76
2024-05-09T07:59:06.354Z,1025.77
2024-05-09T08:00:06.646Z,1025.75
2024-05-09T08:01:06.234Z,1025.71
2024-05-09T08:02:06.571Z,1025.76
2024-05-09T08:03:05.877Z,1025.71
2024-05-09T08:04:28.179Z,1025.71
2024-05-09T08:05:06.073Z,1025.69
2024-05-09T08:06:07.994Z,1025.69
2024-05-09T08:07:07.916Z,1025.68
2024-05-09T08:08:06.090Z,1025.69
2024-05-09T08:09:10.836Z,1025.64
2024-05-09T08:10:10.666Z,1025.66
2024-05-09T08:11:06.945Z,1025.62
2024-05-09T08:12:06.133Z,1025.66
2024-05-09T08:13:07.823Z,1025.65
2024-05-09T08:14:26.719Z,1025.66
2024-05-09T08:15:05.801Z,1025.65
2024-05-09T08:16:06.253Z,1025.63
2024-05-09T08:17:05.819Z,1025.60
2024-05-09T08:18:06.190Z,1025.57
2024-05-09T08:19:07.786Z,1025.58
2024-05-09T08:20:05.980Z,1025.59
2024-05-09T08:21:07.646Z,1025.56
2024-05-09T08:22:11.410Z,1025.57
2024-05-09T08:23:05.995Z,1025.55
2024-05-09T08:24:26.143Z,1025.55
2024-05-09T08:25:06.199Z,1025.56
2024-05-09T08:26:05.846Z,1025.54
2024-05-09T08:27:05.574Z,1025.58
2024-05-09T08:28:05.910Z,1025.57
2024-05-09T08:29:05.549Z,1025.57
2024-05-09T08:30:07.922Z,1025.60
2024-05-09T08:31:07.184Z,1025.53
2024-05-09T08:32:05.877Z,1025.53
2024-05-09T08:33:06.361Z,1025.49
2024-05-09T08:34:27.290Z,1025.48
2024-05-09T08:35:06.514Z,1025.48
2024-05-09T08:36:06.698Z,1025.48
2024-05-09T08:37:13.172Z,1025.45
2024-05-09T08:38:08.229Z,1025.43
2024-05-09T08:39:07.979Z,1025.42
2024-05-09T08:40:16.952Z,1025.43
2024-05-09T08:41:06.541Z,1025.43
2024-05-09T08:42:05.854Z,1025.47
2024-05-09T08:43:06.219Z,1025.39
2024-05-09T08:44:27.782Z,1025.41
2024-05-09T08:45:05.564Z,1025.37
2024-05-09T08:46:05.801Z,1025.37
2024-05-09T08:47:07.525Z,1025.36
2024-05-09T08:48:07.424Z,1025.43
2024-05-09T08:49:05.747Z,1025.39
2024-05-09T08:50:06.814Z,1025.39
2024-05-09T08:51:05.547Z,1025.41
2024-05-09T08:52:05.884Z,1025.38
2024-05-09T08:53:05.720Z,1025.42
2024-05-09T08:54:24.967Z,1025.47
2024-05-09T08:55:06.328Z,1025.41
2024-05-09T08:56:07.267Z,1025.43
2024-05-09T08:57:05.504Z,1025.47
2024-05-09T08:58:06.137Z,1025.39
2024-05-09T08:59:04.697Z,1025.43
2024-05-09T09:00:07.893Z,1025.41
2024-05-09T09:01:08.473Z,1025.35
2024-05-09T09:02:05.306Z,1025.39
2024-05-09T09:03:05.420Z,1025.37
2024-05-09T09:04:26.297Z,1025.40
2024-05-09T09:05:06.190Z,1025.41
2024-05-09T09:06:04.701Z,1025.44
2024-05-09T09:07:07.336Z,1025.41
2024-05-09T09:08:05.580Z,1025.42
2024-05-09T09:09:05.304Z,1025.41
2024-05-09T09:10:08.539Z,1025.36
2024-05-09T09:11:05.326Z,1025.32
2024-05-09T09:12:06.712Z,1025.36
2024-05-09T09:13:05.603Z,1025.36
2024-05-09T09:14:27.487Z,1025.28
2024-05-09T09:15:15.986Z,1025.25
2024-05-09T09:16:07.291Z,1025.27
2024-05-09T09:17:05.020Z,1025.27
2024-05-09T09:18:06.573Z,1025.31
2024-05-09T09:19:05.619Z,1025.26
2024-05-09T09:20:09.049Z,1025.30
2024-05-09T09:21:06.459Z,1025.30
2024-05-09T09:22:05.203Z,1025.30
2024-05-09T09:23:07.358Z,1025.32
2024-05-09T09:24:26.746Z,1025.30
2024-05-09T09:25:06.975Z,1025.26
2024-05-09T09:26:05.208Z,1025.27
2024-05-09T09:27:05.387Z,1025.27
2024-05-09T09:28:07.193Z,1025.25
2024-05-09T09:29:07.826Z,1025.18
2024-05-09T09:30:27.261Z,1025.16
2024-05-09T09:31:06.190Z,1025.18
2024-05-09T09:32:05.372Z,1025.17
2024-05-09T09:33:05.488Z,1025.19
2024-05-09T09:34:27.374Z,1025.21
2024-05-09T09:35:05.077Z,1025.22
2024-05-09T09:36:07.512Z,1025.22
2024-05-09T09:37:05.069Z,1025.24
2024-05-09T09:38:05.299Z,1025.21
2024-05-09T09:39:05.003Z,1025.17
2024-05-09T09:40:06.946Z,1025.17
2024-05-09T09:41:05.054Z,1025.16
2024-05-09T09:42:05.257Z,1025.20
2024-05-09T09:43:04.977Z,1025.15
2024-05-09T09:44:26.111Z,1025.17
2024-05-09T09:45:05.880Z,1025.11
2024-05-09T09:46:06.288Z,1025.10
2024-05-09T09:47:04.867Z,1025.08
2024-05-09T09:48:05.166Z,1025.08
2024-05-09T09:49:04.916Z,1025.07
2024-05-09T09:50:12.022Z,1025.09
2024-05-09T09:51:05.771Z,1025.04
2024-05-09T09:52:06.040Z,1025.01
2024-05-09T09:53:04.713Z,1025.04
2024-05-09T09:54:25.130Z,1024.95
2024-05-09T09:55:06.746Z,1024.94
2024-05-09T09:56:05.036Z,1024.91
2024-05-09T09:57:04.782Z,1024.95
2024-05-09T09:58:14.254Z,1024.97
2024-05-09T09:59:05.031Z,1024.94
2024-05-09T10:00:07.396Z,1024.95
2024-05-09T10:01:07.058Z,1024.86
2024-05-09T10:02:04.995Z,1024.92
2024-05-09T10:03:04.990Z,1024.91
2024-05-09T10:04:26.800Z,1024.88
2024-05-09T10:05:05.221Z,1024.85
2024-05-09T10:06:04.734Z,1024.82
2024-05-09T10:07:06.941Z,1024.89
2024-05-09T10:08:04.688Z,1024.83
2024-05-09T10:09:05.844Z,1024.81
2024-05-09T10:10:06.824Z,1024.86
2024-05-09T10:11:04.918Z,1024.88
2024-05-09T10:12:06.285Z,1024.83
2024-05-09T10:13:04.971Z,1024.82
2024-05-09T10:14:26.575Z,1024.84
2024-05-09T10:15:04.855Z,1024.80
2024-05-09T10:16:04.629Z,1024.72
2024-05-09T10:17:04.861Z,1024.78
2024-05-09T10:18:04.830Z,1024.78
2024-05-09T10:19:04.807Z,1024.80
2024-05-09T10:20:11.727Z,1024.83
2024-05-09T10:21:05.719Z,1024.80
2024-05-09T10:22:04.600Z,1024.79
2024-05-09T10:23:04.646Z,1024.82
2024-05-09T10:24:25.227Z,1024.82
2024-05-09T10:25:05.285Z,1024.87
2024-05-09T10:26:06.365Z,1024.84
2024-05-09T10:27:04.696Z,1024.82
2024-05-09T10:28:05.186Z,1024.77
2024-05-09T10:29:04.695Z,1024.81
2024-05-09T10:30:11.653Z,1024.74
2024-05-09T10:31:05.653Z,1024.80
2024-05-09T10:32:05.284Z,1024.75
2024-05-09T10:33:04.753Z,1024.75
2024-05-09T10:34:24.691Z,1024.81
2024-05-09T10:35:04.619Z,1024.82
2024-05-09T10:36:04.312Z,1024.78
2024-05-09T10:37:05.074Z,1024.74
2024-05-09T10:38:04.456Z,1024.76
2024-05-09T10:39:04.236Z,1024.66
2024-05-09T10:40:09.418Z,1024.67
2024-05-09T10:41:05.200Z,1024.67
2024-05-09T10:42:04.420Z,1024.62
2024-05-09T10:43:06.350Z,1024.63
2024-05-09T10:44:24.405Z,1024.64
2024-05-09T10:45:06.068Z,1024.59
2024-05-09T10:46:04.394Z,1024.62
2024-05-09T10:47:04.704Z,1024.59
2024-05-09T10:48:04.500Z,1024.55
2024-05-09T10:49:07.168Z,1024.54
2024-05-09T10:50:12.743Z,1024.50
2024-05-09T10:51:05.486Z,1024.57
2024-05-09T10:52:05.276Z,1024.54
2024-05-09T10:53:04.458Z,1024.51
2024-05-09T10:54:24.191Z,1024.55
2024-05-09T10:55:11.784Z,1024.50
2024-05-09T10:56:04.437Z,1024.52
2024-05-09T10:57:04.173Z,1024.52
2024-05-09T10:58:04.497Z,1024.49
2024-05-09T10:59:04.106Z,1024.53
2024-05-09T11:00:07.949Z,1024.57
2024-05-09T11:01:07.033Z,1024.49
2024-05-09T11:02:04.499Z,1024.50
2024-05-09T11:03:04.094Z,1024.49
2024-05-09T11:04:24.339Z,1024.47
2024-05-09T11:05:04.228Z,1024.50
2024-05-09T11:06:04.208Z,1024.50
2024-05-09T11:07:05.381Z,1024.49
2024-05-09T11:08:04.184Z,1024.50
2024-05-09T11:09:12.138Z,1024.48
2024-05-09T11:10:09.748Z,1024.50
2024-05-09T11:11:05.123Z,1024.49
2024-05-09T11:12:03.976Z,1024.46
2024-05-09T11:13:04.506Z,1024.47
2024-05-09T11:14:23.825Z,1024.39
2024-05-09T11:15:04.056Z,1024.39
2024-05-09T11:16:04.508Z,1024.38
2024-05-09T11:17:04.031Z,1024.42
2024-05-09T11:18:04.357Z,1024.39
2024-05-09T11:19:04.181Z,1024.41
2024-05-09T11:20:10.484Z,1024.43
2024-05-09T11:21:04.916Z,1024.37
2024-05-09T11:22:04.180Z,1024.37
2024-05-09T11:23:03.877Z,1024.42
2024-05-09T11:24:24.133Z,1024.39
2024-05-09T11:25:03.890Z,1024.39
2024-05-09T11:26:04.161Z,1024.38
2024-05-09T11:27:03.856Z,1024.32
2024-05-09T11:28:04.125Z,1024.33
2024-05-09T11:29:03.788Z,1024.30
2024-05-09T11:30:04.463Z,1024.29
2024-05-09T11:31:03.803Z,1024.35
2024-05-09T11:32:04.042Z,1024.28
2024-05-09T11:33:03.705Z,1024.32
2024-05-09T11:34:23.963Z,1024.30
2024-05-09T11:35:03.644Z,1024.29
2024-05-09T11:36:03.942Z,1024.23
2024-05-09T11:37:03.754Z,1024.28
2024-05-09T11:38:03.883Z,1024.26
2024-05-09T11:39:04.106Z,1024.21
2024-05-09T11:40:05.400Z,1024.20
2024-05-09T11:41:03.002Z,1024.10
2024-05-09T11:42:03.017Z,1024.17
2024-05-09T11:43:03.750Z,1024.14
2024-05-09T11:44:23.956Z,1024.12
2024-05-09T11:45:03.686Z,1024.12
2024-05-09T11:46:04.311Z,1024.13
2024-05-09T11:47:03.621Z,1024.11
2024-05-09T11:48:03.986Z,1024.12
2024-05-09T11:49:03.758Z,1024.13
2024-05-09T11:50:07.699Z,1024.13
2024-05-09T11:51:03.518Z,1024.12
2024-05-09T11:52:03.785Z,1024.10
2024-05-09T11:53:03.511Z,1024.10
2024-05-09T11:54:23.706Z,1024.07
2024-05-09T11:55:03.521Z,1024.04
2024-05-09T11:56:03.817Z,1024.03
2024-05-09T11:57:03.429Z,1024.01
2024-05-09T11:58:03.796Z,1024.01
2024-05-09T11:59:03.460Z,1024.02
2024-05-09T12:00:05.613Z,1024.00
2024-05-09T12:01:05.490Z,1023.93
2024-05-09T12:02:04.725Z,1023.99
2024-05-09T12:03:03.606Z,1023.98
2024-05-09T12:04:23.133Z,1023.97
2024-05-09T12:05:05.625Z,1023.96
2024-05-09T12:06:03.492Z,1023.94
2024-05-09T12:07:03.550Z,1023.99
2024-05-09T12:08:03.724Z,1023.94
2024-05-09T12:09:03.437Z,1023.94
2024-05-09T12:10:06.189Z,1023.95
2024-05-09T12:11:03.532Z,1023.93
2024-05-09T12:12:03.725Z,1023.88